Bypro, KY (41612)

10:25 PM EDT on September 20, 2014 (GMT -0400)
Sookeys Creek | Change Station
CLOSE
Current Station
Personal Weather Station
Location: Kentucky, KY
Elevation: 850 ft
Nearby Weather Stations

Elev 850 ft 37.40 °N, 82.54 °W | Updated 39 seconds ago

Clear
Clear
63.1 °F
Feels Like 63.1 °F
N
0.0
Wind Variable Wind from North
Gusts 0.0 mph

Today
High -- | Low -- °F
--% Chance of Precip.
Yesterday
High -- | Low -- °F
Precip. -- in
7:16 AM 7:30 PM
Waning Crescent, 9% visible
Pressure 30.15 in
Visibility 10.0 miles
Clouds Clear
Dew Point 62 °F
Humidity 97%
Rainfall 0.00 in
Snow Depth Not available.
UV 0 out of 12
Pollen 5.30 out of 12
Air Quality Not available.
Flu Activity Not available.
METAR KLNP 210215Z AUTO 00000KT 10SM CLR 16/12 A3015 RMK AO2

More Conditions Fewer Conditions

Pressure 30.15 in
Visibility 10.0 miles
Clouds Clear
Dew Point 62 °F
Humidity 97%
Rainfall 0.00 in
Snow Depth Not available.
UV 0 out of 12
Pollen 5.30 out of 12
Air Quality Not available.
Flu Activity Not available.
METAR KLNP 210215Z AUTO 00000KT 10SM CLR 16/12 A3015 RMK AO2

More Conditions Fewer Conditions

10-Day Weather Forecast

Almanac

Astronomy

Sep. 20, 2014 Rise Set
Actual Time 7:16 AM EDT 7:30 PM EDT
Civil Twilight 6:50 AM EDT 7:56 PM EDT
Nautical Twilight 6:20 AM EDT 8:27 PM EDT
Astronomical Twilight 5:49 AM EDT 8:58 PM EDT
Moon 3:58 AM EDT (9/20) 5:30 PM EDT (9/20)
Length of Visible Light 13h 05m
Length of Day
12h 13m
Tomorrow will be 2m 23s shorter.
Waning Crescent, 9% of the Moon is Illuminated
Today
Waning Crescent
Sep 24
New
Oct 1
First Quarter
Oct 8
Full
Oct 15
Last Quarter

Today's Extremes

State Highs State Lows

Community

WunderPhotos

Upload Photos

1,755,032 photos uploaded!

WunderBlogs® & News

Nearby

Snow Depth

Station Depth Elevation
No new snow has been reported.

Earthquake Activity

City Distance Mag. Time & Date
Sweetwater, Tennessee 149 miles 2.5 3:54 PM EDT
2014-09-20
Minimum magnitude displayed is 2.5.

Coastal Water Temperatures

Place Temperature
No Stations Reporting

Nearby Weather Stations